This is the latest recevied weather packets stored in our database for station/object K6POO-1. If no packets are shown the sender has not sent any weather packets the latest 1 day(s).
| Time | Temp. | Humidity | Pressure | Rain* | Wind** | Luminosity | Snow |
|---|---|---|---|---|---|---|---|
| 1778115052 | 16.67° C | 74% | 1018.3 hPa | 0 mm | - | 199 W/m² | - |
| 1778114749 | 17.22° C | 72% | 1018.2 hPa | 0 mm | - | 217 W/m² | - |
| 1778114142 | 17.78° C | 70% | 1018.1 hPa | 0 mm | - | 253 W/m² | - |
| 1778113832 | 17.78° C | 69% | 1018.3 hPa | 0 mm | - | 271 W/m² | - |
| 1778113529 | 17.78° C | 70% | 1018.3 hPa | 0 mm | - | 291 W/m² | - |
| 1778112921 | 17.78° C | 70% | 1018.4 hPa | 0 mm | - | 328 W/m² | - |
| 1778112619 | 17.78° C | 71% | 1018.3 hPa | 0 mm | - | 348 W/m² | - |
| 1778111708 | 18.33° C | 68% | 1018.5 hPa | 0 mm | - | 408 W/m² | - |
| 1778111101 | 17.78° C | 71% | 1018.5 hPa | 0 mm | - | 446 W/m² | - |
| 1778110799 | 17.22° C | 71% | 1018.7 hPa | 0 mm | - | 466 W/m² | - |
| 1778105946 | 18.89° C | 67% | 1019.2 hPa | 0 mm | - | 740 W/m² | - |
| 1778105036 | 18.89° C | 68% | 1019.5 hPa | 0 mm | - | 781 W/m² | - |
| 1778103520 | 19.44° C | 65% | 1019.6 hPa | 0 mm | - | 838 W/m² | - |
| 1778103217 | 20° C | 65% | 1019.7 hPa | 0 mm | - | 849 W/m² | - |
| 1778102914 | 20° C | 64% | 1019.7 hPa | 0 mm | - | 861 W/m² | - |
| 1778102610 | 20° C | 64% | 1019.6 hPa | 0 mm | - | 871 W/m² | - |
| 1778102305 | 20° C | 62% | 1019.8 hPa | 0 mm | - | 881 W/m² | - |
| 1778101699 | 20° C | 65% | 1019.8 hPa | 0 mm | - | 899 W/m² | - |
| 1778101092 | 20.56° C | 64% | 1019.8 hPa | 0 mm | - | 915 W/m² | - |
| 1778099880 | 18.89° C | 68% | 1020 hPa | 0 mm | - | 942 W/m² | - |
| 1778099274 | 20° C | 66% | 1020.1 hPa | 0 mm | - | 949 W/m² | - |
| 1778098971 | 19.44° C | 68% | 1020 hPa | 0 mm | - | 956 W/m² | - |
| 1778097758 | 19.44° C | 66% | 1020.5 hPa | 0 mm | - | 970 W/m² | - |
| 1778096545 | 20° C | 65% | 1020.4 hPa | 0 mm | - | 975 W/m² | - |
| 1778095332 | 19.44° C | 65% | 1020.7 hPa | 0 mm | - | 971 W/m² | - |
* Rain latest hour (hover to see other rain measurements)
** Current wind speed in m/s (hover to see current wind gust speed)